Main page
METAR-TAF:

METAR-TAF

Airports :

Naval Station Rota

Rota, Spain

latitude: 36-39N, longitude: 006-21W, elevation: 26 m

Current weather observation

The report was made 1 hour and 4 minutes ago, at 08:00 UTC
Wind 10 kt from the South, varying between Southeast and South/Southwest
Temperature 22°C
Humidity 78%
Pressure 1017 hPa
Visibility 10 km or more
Broken clouds at a height of 1400 ft

METAR: LERT 150800Z 18010KT 140V200 9999 BKN014 22/18 Q1017 NOSIG

Time: 11:04 (09:04 UTC)

Forecast

The report was made 1 hour and 4 minutes ago, at 08:00 UTC
Forecast valid from 15 at 09 UTC to 15 at 18 UTC
Wind 12 kt from the South/Southwest
Visibility 10 km or more
Scattered clouds at a height of 1800 ft
Probability 40% :
Temporary
from 15 at 09 UTC to 15 at 11 UTC
Broken clouds at a height of 1400 ft
Becoming
from 15 at 14 UTC to 15 at 16 UTC
Wind 12 kt from the West

TAF: LERT 150800Z 1509/1518 20012KT 9999 SCT018 PROB40 TEMPO 1509/1511 BKN014 BECMG 1514/1516 26012KT

Weather observations and forecasts of more than 4000 airports (METAR and TAF reports).

The available stations are represented by yellow and red dots on the map.

Hover mouse over dot to see the name of the station.

Then click to see weather observations and forecasts.

To change the map : click on the green buttons with a black cross to zoom in, on the green button with a dash to zoom out, or on the green arrows for adjacent maps.


METAR-TAF: